createdAt,value
2018-04-16T00:02:48.410Z,13.32
2018-04-16T00:08:39.370Z,11.84
2018-04-16T00:14:30.268Z,11.8
2018-04-16T00:20:21.187Z,9.55
2018-04-16T00:26:12.042Z,12.29
2018-04-16T00:32:02.975Z,13.84
2018-04-16T00:37:53.840Z,15.72
2018-04-16T00:43:44.756Z,15.74
2018-04-16T00:49:35.630Z,13.09
2018-04-16T00:55:26.575Z,11.89
2018-04-16T01:01:17.416Z,11.35
2018-04-16T01:07:08.397Z,10.13
2018-04-16T01:12:59.263Z,14.38
2018-04-16T01:18:50.145Z,17.15
2018-04-16T01:24:41.017Z,16.79
2018-04-16T01:30:31.926Z,19.81
2018-04-16T01:36:22.822Z,14.11
2018-04-16T01:42:13.795Z,10.71
2018-04-16T01:48:04.675Z,18.52
2018-04-16T01:53:55.491Z,25.46
2018-04-16T01:59:46.436Z,15.49
2018-04-16T02:05:37.279Z,16.89
2018-04-16T02:11:28.283Z,11.86
2018-04-16T02:17:19.121Z,16.53
2018-04-16T02:23:09.995Z,15.15
2018-04-16T02:29:00.902Z,13.93
2018-04-16T02:34:51.801Z,15.04
2018-04-16T02:40:42.772Z,16.94
2018-04-16T02:46:33.599Z,16.36
2018-04-16T02:52:24.520Z,17
2018-04-16T02:58:15.369Z,15
2018-04-16T03:04:06.370Z,12.52
2018-04-16T03:09:57.214Z,13.68
2018-04-16T03:15:48.112Z,16.5
2018-04-16T03:21:39.005Z,14.89
2018-04-16T03:27:29.889Z,18.77
2018-04-16T03:33:20.763Z,13.61
2018-04-16T03:39:11.697Z,11.63
2018-04-16T03:45:02.582Z,11.25
2018-04-16T03:50:53.476Z,15.69
2018-04-16T03:56:44.480Z,10.44
2018-04-16T04:02:35.282Z,12.36
2018-04-16T04:08:26.231Z,16.6
2018-04-16T04:14:17.100Z,21.28
2018-04-16T04:20:07.962Z,15
2018-04-16T04:25:58.863Z,13.57
2018-04-16T04:31:49.850Z,13.27
2018-04-16T04:37:40.727Z,17.72
2018-04-16T04:43:31.566Z,16.16
2018-04-16T04:49:22.527Z,16.04
2018-04-16T04:55:13.375Z,11.24
2018-04-16T05:01:04.327Z,11.54
2018-04-16T05:06:55.197Z,12.81
2018-04-16T05:12:46.105Z,10.95
2018-04-16T05:18:36.979Z,11.01
2018-04-16T05:24:27.885Z,18.36
2018-04-16T05:30:18.825Z,17.33
2018-04-16T05:36:09.658Z,16.4
2018-04-16T05:42:00.596Z,17.65
2018-04-16T05:47:51.481Z,13.02
2018-04-16T05:53:42.382Z,14.64
2018-04-16T05:59:33.226Z,16.86
2018-04-16T06:05:24.181Z,21.79
2018-04-16T06:11:15.033Z,16.29
2018-04-16T06:17:05.973Z,24.16
2018-04-16T06:22:56.823Z,24.65
2018-04-16T06:28:47.735Z,24.18
2018-04-16T06:34:38.569Z,29.91
2018-04-16T06:40:29.518Z,34.02
2018-04-16T06:46:20.387Z,34.35
2018-04-16T06:52:11.304Z,29.44
2018-04-16T06:58:02.112Z,19.81
2018-04-16T07:03:53.051Z,33.2
2018-04-16T07:09:43.944Z,29.34
2018-04-16T07:15:34.831Z,28.99
2018-04-16T07:21:25.771Z,23.06
2018-04-16T07:27:16.631Z,25.68
2018-04-16T07:33:07.554Z,28.69
2018-04-16T07:38:58.468Z,32.95
2018-04-16T07:44:49.305Z,28.81
2018-04-16T07:50:40.228Z,39.72
2018-04-16T07:56:31.120Z,26.8
2018-04-16T08:02:21.998Z,27.07
2018-04-16T08:08:12.959Z,30.27
2018-04-16T08:14:03.836Z,25.37
2018-04-16T08:19:54.738Z,24.29
2018-04-16T08:25:45.597Z,20.97
2018-04-16T08:31:36.481Z,23.55
2018-04-16T08:37:27.421Z,25.27
2018-04-16T08:43:18.271Z,17.76
2018-04-16T08:49:09.150Z,17.91
2018-04-16T08:55:00.122Z,19.5
2018-04-16T09:00:50.970Z,15.58
2018-04-16T09:06:41.887Z,16.21
2018-04-16T09:12:32.793Z,21.34
2018-04-16T09:18:23.667Z,13.12
2018-04-16T09:24:14.556Z,17.61
2018-04-16T09:30:05.478Z,21.78
2018-04-16T09:35:56.380Z,19.31
2018-04-16T09:41:47.312Z,12.56
2018-04-16T09:47:38.186Z,13.42
2018-04-16T09:53:29.068Z,16.74
2018-04-16T09:59:19.974Z,16.54
2018-04-16T10:05:10.907Z,18.04
2018-04-16T10:11:01.805Z,16.18
2018-04-16T10:16:52.657Z,22.73
2018-04-16T10:22:43.570Z,13.08
2018-04-16T10:28:34.516Z,15.86
2018-04-16T10:34:25.357Z,25.57
2018-04-16T10:40:16.246Z,19.68
2018-04-16T10:46:07.138Z,24.83
2018-04-16T10:51:58.079Z,20.39
2018-04-16T10:57:48.943Z,19.23
2018-04-16T11:03:39.926Z,22.36
2018-04-16T11:09:30.718Z,16.49
2018-04-16T11:15:21.677Z,16.6
2018-04-16T11:21:12.543Z,19.14
2018-04-16T11:27:03.385Z,19.48
2018-04-16T11:32:54.358Z,15.1
2018-04-16T11:38:45.219Z,26.85
2018-04-16T11:44:36.122Z,20.55
2018-04-16T11:50:26.970Z,18.44
2018-04-16T11:56:17.864Z,10.66
2018-04-16T12:02:08.804Z,12.21
2018-04-16T12:07:59.653Z,20.45
2018-04-16T12:13:50.550Z,12.6
2018-04-16T12:19:41.490Z,14.27
2018-04-16T12:25:32.361Z,8.51
2018-04-16T12:31:23.316Z,16.71
2018-04-16T12:37:14.210Z,22.69
2018-04-16T12:43:05.045Z,10.7
2018-04-16T12:48:55.960Z,22.3
2018-04-16T12:54:46.863Z,19.09
2018-04-16T13:00:37.772Z,8.98
2018-04-16T13:06:28.761Z,10.17
2018-04-16T13:12:19.537Z,6.12
2018-04-16T13:18:10.477Z,8.6
2018-04-16T13:24:01.453Z,6.87
2018-04-16T13:29:52.229Z,9.15
2018-04-16T13:35:43.146Z,10.37
2018-04-16T13:41:34.086Z,11.75
2018-04-16T13:47:24.925Z,8.94
2018-04-16T13:53:15.879Z,9.26
2018-04-16T13:59:06.710Z,9.55
2018-04-16T14:04:57.657Z,10.07
2018-04-16T14:10:48.547Z,13.74
2018-04-16T14:16:39.442Z,14.57
2018-04-16T14:22:30.330Z,9.77
2018-04-16T14:28:21.269Z,8.73
2018-04-16T14:34:12.138Z,10.36
2018-04-16T14:40:03.087Z,11.08
2018-04-16T14:45:53.958Z,11.36
2018-04-16T14:51:44.868Z,17.69
2018-04-16T14:57:35.790Z,11.71
2018-04-16T15:03:26.758Z,12.37
2018-04-16T15:09:17.578Z,16.7
2018-04-16T15:15:08.502Z,10.76
2018-04-16T15:20:59.360Z,14.61
2018-04-16T15:26:50.266Z,15.09
2018-04-16T15:32:41.251Z,11.76
2018-04-16T15:38:32.066Z,13.93
2018-04-16T15:44:23.013Z,10.12
2018-04-16T15:50:13.897Z,18.2
2018-04-16T15:56:04.763Z,9.7
2018-04-16T16:01:55.693Z,15.67
2018-04-16T16:07:46.595Z,14.11
2018-04-16T16:13:37.474Z,11.14
2018-04-16T16:19:28.367Z,8.55
2018-04-16T16:25:19.319Z,10.69
2018-04-16T16:31:10.194Z,10.49
2018-04-16T16:37:01.073Z,11.01
2018-04-16T16:42:51.967Z,14.1
2018-04-16T16:48:42.884Z,14.12
2018-04-16T16:54:33.822Z,10.71
2018-04-16T17:00:24.725Z,15.63
2018-04-16T17:06:16.638Z,13.75
2018-04-16T17:12:06.545Z,13.01
2018-04-16T17:17:57.410Z,15.41
2018-04-16T17:23:48.313Z,16.02
2018-04-16T17:29:39.232Z,13.05
2018-04-16T17:35:30.221Z,13.92
2018-04-16T17:41:21.085Z,16.77
2018-04-16T17:47:12.075Z,17.12
2018-04-16T17:53:02.823Z,16.65
2018-04-16T17:58:53.773Z,20.86
2018-04-16T18:04:44.698Z,18.24
2018-04-16T18:10:35.602Z,18.27
2018-04-16T18:16:26.572Z,16.39
2018-04-16T18:22:17.345Z,16.56
2018-04-16T18:28:08.301Z,18.8
2018-04-16T18:33:59.245Z,19.08
2018-04-16T18:39:50.065Z,15.32
2018-04-16T18:45:41.017Z,21.04
2018-04-16T18:51:31.917Z,18.26
2018-04-16T18:57:22.770Z,24.86
2018-04-16T19:03:13.695Z,21
2018-04-16T19:09:04.600Z,18.38
2018-04-16T19:14:55.491Z,19.24
2018-04-16T19:20:46.420Z,22.45
2018-04-16T19:26:37.281Z,15.31
2018-04-16T19:32:28.197Z,17.8
2018-04-16T19:38:19.106Z,18.52
2018-04-16T19:44:10.016Z,14.86
2018-04-16T19:50:00.912Z,22.09
2018-04-16T19:55:51.819Z,23.85
2018-04-16T20:01:42.689Z,21.61
2018-04-16T20:07:33.641Z,15.78
2018-04-16T20:13:24.541Z,19.48
2018-04-16T20:19:15.413Z,18.98
2018-04-16T20:25:06.325Z,17.27
2018-04-16T20:30:57.233Z,15.11
2018-04-16T20:36:48.176Z,19
2018-04-16T20:42:39.006Z,16.15
2018-04-16T20:48:29.956Z,13.11
2018-04-16T20:54:20.836Z,20.81
2018-04-16T21:00:11.720Z,17.33
2018-04-16T21:06:02.674Z,17.14
2018-04-16T21:11:53.536Z,17.09
2018-04-16T21:17:44.467Z,18.15
2018-04-16T21:23:35.344Z,16.07
2018-04-16T21:29:26.266Z,18.94
2018-04-16T21:35:17.149Z,15.43
2018-04-16T21:41:08.038Z,17.44
2018-04-16T21:46:58.947Z,15.39
2018-04-16T21:52:49.845Z,15.88
2018-04-16T21:58:40.815Z,17.88
2018-04-16T22:04:31.663Z,17.62
2018-04-16T22:10:22.600Z,15.73
2018-04-16T22:16:13.508Z,13.05
2018-04-16T22:22:04.429Z,15.81
2018-04-16T22:27:55.237Z,13.76
2018-04-16T22:33:46.176Z,15.49
2018-04-16T22:39:37.114Z,18.81
2018-04-16T22:45:27.956Z,13.43
2018-04-16T22:51:18.857Z,15.57
2018-04-16T22:57:09.749Z,18.24
2018-04-16T23:03:00.641Z,17.87
2018-04-16T23:08:51.562Z,14.11
2018-04-16T23:14:42.480Z,18.9
2018-04-16T23:20:33.347Z,14.5
2018-04-16T23:26:24.260Z,15.38
2018-04-16T23:32:15.167Z,16.6
2018-04-16T23:38:06.115Z,14.41
2018-04-16T23:43:56.991Z,15.1
2018-04-16T23:49:47.860Z,15.73
2018-04-16T23:55:38.788Z,17.41
